Weather at Baylor University Medical Center Grapevine Helipad

Public forecast

Using degrees Fahrenheit for public forecast. Weather courtesy of forecast.io.

Closest aviation weather report (METAR) to Baylor University Medical Center Grapevine Helipad

Closest report is Dallas Fort Worth International Airport, 3.7 nm (6.8 km) SE.

2024/05/25 03:53 (retrieved 26 minutes ago)

KDFW 250353Z 14006KT 10SM FEW027 SCT250 23/20 A2977 RMK AO2 SLP073 T02280200

Closest aviation forecast (TAF) to Baylor University Medical Center Grapevine Helipad

Forecast is more than 12 hours old.

Closest forecast is NAS Fort Worth JRB / Carswell Field, 20.1 nm (37.2 km) WSW.

2024/05/23 17:51 Ammendment (retrieved 1 day ago)

AMD KNFW 2317/2415 18015KT 9999 FEW040 SCT080 BKN250 QNH2974INS BECMG 2322/2400 19015G22KT 9999 -SHRA VCTS SCT025CB BKN030 OVC120 QNH2968INS BECMG 2400/2401 17012G18KT 9999 -TSRA BR BKN022CB BKN028 OVC060 QNH2966INS TEMPO 2402/2404 VRB18G26KT 4800 TSRA BR BKN012CB OVC018 BECMG 2407/2409 19015G20KT 9000 BR BKN009 OVC014 QNH2962INS TX30/2320Z TN24/2409Z AMD 1730 FN20046